RVD NFFN-NFFN
Flight info
| Callsign | RVD |
|---|---|
| Flight time | N/A |
| Altitude | 3000 |
| Route | ECHO MI |
| Aircraft | C172/L-SFG/C |
Departure
| Time | 2026-05-06 07:45 |
|---|---|
| Airport | Nadi International Airport (NFFN) |
Arrival
| Time | N/A |
|---|---|
| Airport | Nadi International Airport (NFFN) |
| Time | Latitude | Longitude | Altitude | Speed | Heading |
|---|---|---|---|---|---|
| 2026-05-06 07:38 | -17.75752 | 177.44846 | 55 ft | 0 kts | 338° |
| 2026-05-06 07:40 | -17.75727 | 177.44867 | 54 ft | 10 kts | 182° |
| 2026-05-06 07:40 | -17.75701 | 177.44775 | 53 ft | 17 kts | 316° |
| 2026-05-06 07:40 | -17.75591 | 177.44698 | 49 ft | 21 kts | 322° |
| 2026-05-06 07:40 | -17.75542 | 177.44565 | 47 ft | 16 kts | 280° |
| 2026-05-06 07:41 | -17.75515 | 177.44458 | 46 ft | 15 kts | 283° |
| 2026-05-06 07:41 | -17.75495 | 177.44348 | 43 ft | 11 kts | 246° |
| 2026-05-06 07:41 | -17.75533 | 177.44313 | 42 ft | 0 kts | 220° |
| 2026-05-06 07:44 | -17.75597 | 177.44263 | 40 ft | 40 kts | 216° |
| 2026-05-06 07:44 | -17.75934 | 177.43983 | 136 ft | 70 kts | 213° |
| 2026-05-06 07:44 | -17.76322 | 177.43660 | 320 ft | 77 kts | 206° |
| 2026-05-06 07:45 | -17.76785 | 177.43365 | 552 ft | 79 kts | 205° |
| 2026-05-06 07:45 | -17.77233 | 177.43004 | 783 ft | 84 kts | 214° |
| 2026-05-06 07:45 | -17.77663 | 177.42604 | 1032 ft | 82 kts | 209° |
| 2026-05-06 07:45 | -17.78120 | 177.42252 | 1279 ft | 81 kts | 207° |
| 2026-05-06 07:46 | -17.78560 | 177.41917 | 1489 ft | 83 kts | 209° |
| 2026-05-06 07:46 | -17.78995 | 177.41560 | 1691 ft | 85 kts | 212° |
| 2026-05-06 07:46 | -17.79456 | 177.41156 | 1928 ft | 84 kts | 210° |
| 2026-05-06 07:46 | -17.79912 | 177.40796 | 2142 ft | 83 kts | 209° |
| 2026-05-06 07:47 | -17.80385 | 177.40448 | 2364 ft | 82 kts | 208° |
| 2026-05-06 07:47 | -17.80846 | 177.40071 | 2570 ft | 83 kts | 211° |
| 2026-05-06 07:47 | -17.81288 | 177.39703 | 2793 ft | 81 kts | 211° |
| 2026-05-06 07:47 | -17.81741 | 177.39323 | 2958 ft | 85 kts | 211° |
| 2026-05-06 07:48 | -17.81833 | 177.39247 | 2999 ft | 85 kts | 211° |
| 2026-05-06 07:48 | -17.82072 | 177.39059 | 3108 ft | 83 kts | 208° |
| 2026-05-06 07:48 | -17.82544 | 177.38713 | 3294 ft | 83 kts | 208° |
| 2026-05-06 07:48 | -17.83003 | 177.38356 | 3487 ft | 83 kts | 211° |
| 2026-05-06 07:49 | -17.83446 | 177.37967 | 3678 ft | 82 kts | 213° |
| 2026-05-06 07:49 | -17.83892 | 177.37598 | 3857 ft | 82 kts | 211° |
| 2026-05-06 07:49 | -17.84199 | 177.37376 | 3978 ft | 81 kts | 207° |
| 2026-05-06 07:50 | -17.84216 | 177.37366 | 3984 ft | 81 kts | 207° |
| 2026-05-06 07:50 | -17.84686 | 177.37028 | 4138 ft | 83 kts | 212° |
| 2026-05-06 07:50 | -17.85136 | 177.36671 | 4332 ft | 80 kts | 210° |
| 2026-05-06 07:50 | -17.85595 | 177.36310 | 4480 ft | 83 kts | 214° |
| 2026-05-06 07:51 | -17.86021 | 177.35907 | 4653 ft | 82 kts | 217° |
| 2026-05-06 07:51 | -17.86200 | 177.35730 | 4725 ft | 82 kts | 217° |
| 2026-05-06 07:52 | -17.86548 | 177.35397 | 4866 ft | 81 kts | 215° |
| 2026-05-06 07:52 | -17.86988 | 177.35036 | 5021 ft | 80 kts | 211° |
| 2026-05-06 07:52 | -17.87445 | 177.34706 | 5185 ft | 79 kts | 210° |
| 2026-05-06 07:53 | -17.87903 | 177.34376 | 5339 ft | 79 kts | 213° |
| 2026-05-06 07:53 | -17.88333 | 177.34000 | 5481 ft | 81 kts | 217° |
| 2026-05-06 07:53 | -17.88770 | 177.33633 | 5619 ft | 81 kts | 215° |
| 2026-05-06 07:53 | -17.89214 | 177.33266 | 5774 ft | 79 kts | 214° |
| 2026-05-06 07:54 | -17.89667 | 177.32921 | 5890 ft | 82 kts | 213° |
| 2026-05-06 07:54 | -17.90134 | 177.32593 | 6037 ft | 80 kts | 211° |
| 2026-05-06 07:54 | -17.90627 | 177.32317 | 6156 ft | 82 kts | 199° |
| 2026-05-06 07:54 | -17.91192 | 177.32329 | 6299 ft | 84 kts | 172° |
| 2026-05-06 07:55 | -17.91713 | 177.32661 | 6419 ft | 94 kts | 143° |
| 2026-05-06 07:55 | -17.92012 | 177.33311 | 6532 ft | 106 kts | 110° |
| 2026-05-06 07:55 | -17.91979 | 177.34109 | 6657 ft | 111 kts | 88° |
| 2026-05-06 07:55 | -17.91804 | 177.34917 | 6769 ft | 115 kts | 81° |
| 2026-05-06 07:56 | -17.91567 | 177.35712 | 6894 ft | 115 kts | 80° |
| 2026-05-06 07:56 | -17.91379 | 177.36523 | 6986 ft | 115 kts | 88° |
| 2026-05-06 07:56 | -17.91413 | 177.37338 | 6990 ft | 106 kts | 114° |
| 2026-05-06 07:56 | -17.91582 | 177.38065 | 6974 ft | 103 kts | 112° |
| 2026-05-06 07:57 | -17.91735 | 177.38806 | 6976 ft | 100 kts | 114° |
| 2026-05-06 07:57 | -17.91914 | 177.39505 | 6994 ft | 99 kts | 117° |
| 2026-05-06 07:57 | -17.92109 | 177.40202 | 6994 ft | 101 kts | 117° |
| 2026-05-06 07:57 | -17.92315 | 177.40909 | 6994 ft | 102 kts | 118° |
| 2026-05-06 07:58 | -17.92528 | 177.41629 | 6994 ft | 103 kts | 118° |
| 2026-05-06 07:58 | -17.92742 | 177.42348 | 6994 ft | 104 kts | 118° |
| 2026-05-06 07:58 | -17.92958 | 177.43071 | 6994 ft | 104 kts | 118° |
| 2026-05-06 07:58 | -17.93203 | 177.43779 | 6993 ft | 102 kts | 127° |
| 2026-05-06 07:59 | -17.93305 | 177.43997 | 6993 ft | 101 kts | 127° |
| 2026-05-06 07:59 | -17.93840 | 177.45091 | 6992 ft | 98 kts | 130° |
| 2026-05-06 07:59 | -17.94169 | 177.45708 | 6992 ft | 96 kts | 131° |
| 2026-05-06 07:59 | -17.94494 | 177.46320 | 6993 ft | 95 kts | 131° |
| 2026-05-06 08:00 | -17.94801 | 177.46931 | 6993 ft | 94 kts | 130° |
| 2026-05-06 08:00 | -17.95118 | 177.47534 | 6993 ft | 94 kts | 131° |
| 2026-05-06 08:00 | -17.95432 | 177.48131 | 6993 ft | 93 kts | 131° |
| 2026-05-06 08:00 | -17.95745 | 177.48729 | 6993 ft | 93 kts | 131° |
| 2026-05-06 08:01 | -17.96046 | 177.49321 | 6993 ft | 93 kts | 127° |
| 2026-05-06 08:01 | -17.96315 | 177.49947 | 6993 ft | 94 kts | 126° |
| 2026-05-06 08:01 | -17.96583 | 177.50578 | 6993 ft | 94 kts | 126° |
| 2026-05-06 08:01 | -17.96843 | 177.51193 | 6993 ft | 94 kts | 126° |
| 2026-05-06 08:02 | -17.97103 | 177.51810 | 6993 ft | 94 kts | 126° |
| 2026-05-06 08:02 | -17.97356 | 177.52444 | 6993 ft | 94 kts | 124° |
| 2026-05-06 08:02 | -17.97602 | 177.53084 | 6993 ft | 94 kts | 124° |
| 2026-05-06 08:02 | -17.97847 | 177.53720 | 6993 ft | 94 kts | 124° |
| 2026-05-06 08:03 | -17.98091 | 177.54356 | 6993 ft | 94 kts | 124° |
| 2026-05-06 08:03 | -17.98335 | 177.54993 | 6993 ft | 94 kts | 124° |
| 2026-05-06 08:03 | -17.98583 | 177.55637 | 6993 ft | 94 kts | 124° |
| 2026-05-06 08:03 | -17.98832 | 177.56264 | 6993 ft | 94 kts | 126° |
| 2026-05-06 08:04 | -17.99096 | 177.56894 | 6993 ft | 93 kts | 126° |
| 2026-05-06 08:04 | -17.99358 | 177.57516 | 6993 ft | 93 kts | 126° |
| 2026-05-06 08:04 | -17.99619 | 177.58136 | 6993 ft | 93 kts | 126° |
| 2026-05-06 08:04 | -17.99884 | 177.58766 | 6994 ft | 93 kts | 126° |
| 2026-05-06 08:05 | -18.00142 | 177.59381 | 6994 ft | 94 kts | 126° |
| 2026-05-06 08:05 | -18.00404 | 177.60013 | 6994 ft | 94 kts | 125° |
| 2026-05-06 08:05 | -18.00654 | 177.60635 | 6994 ft | 94 kts | 125° |
| 2026-05-06 08:05 | -18.00908 | 177.61267 | 6994 ft | 94 kts | 125° |
| 2026-05-06 08:06 | -18.01164 | 177.61906 | 6994 ft | 94 kts | 125° |
| 2026-05-06 08:06 | -18.01424 | 177.62534 | 6996 ft | 96 kts | 126° |
| 2026-05-06 08:06 | -18.01708 | 177.63191 | 6996 ft | 101 kts | 126° |
| 2026-05-06 08:06 | -18.02006 | 177.63867 | 6995 ft | 104 kts | 126° |
| 2026-05-06 08:07 | -18.02313 | 177.64555 | 6995 ft | 105 kts | 126° |
| 2026-05-06 08:07 | -18.02605 | 177.65214 | 6993 ft | 107 kts | 124° |
| 2026-05-06 08:07 | -18.02894 | 177.65912 | 6991 ft | 107 kts | 123° |
| 2026-05-06 08:07 | -18.03188 | 177.66625 | 6991 ft | 107 kts | 123° |
| 2026-05-06 08:08 | -18.03425 | 177.67180 | 7026 ft | 103 kts | 117° |
| 2026-05-06 08:08 | -18.03799 | 177.67807 | 7075 ft | 101 kts | 123° |
| 2026-05-06 08:08 | -18.04183 | 177.68416 | 7081 ft | 102 kts | 122° |
| 2026-05-06 08:08 | -18.04546 | 177.69060 | 7082 ft | 104 kts | 120° |
| 2026-05-06 08:09 | -18.04903 | 177.69713 | 7082 ft | 105 kts | 120° |
| 2026-05-06 08:09 | -18.05198 | 177.70409 | 7082 ft | 105 kts | 109° |
| 2026-05-06 08:09 | -18.05433 | 177.71120 | 7082 ft | 105 kts | 108° |
| 2026-05-06 08:09 | -18.05666 | 177.71837 | 7082 ft | 105 kts | 108° |
| 2026-05-06 08:10 | -18.05901 | 177.72560 | 7082 ft | 105 kts | 108° |
| 2026-05-06 08:10 | -18.06138 | 177.73294 | 7082 ft | 105 kts | 108° |
| 2026-05-06 08:10 | -18.06374 | 177.74022 | 7082 ft | 106 kts | 108° |
| 2026-05-06 08:10 | -18.06607 | 177.74742 | 7082 ft | 106 kts | 108° |
| 2026-05-06 08:11 | -18.06846 | 177.75481 | 7082 ft | 106 kts | 108° |
| 2026-05-06 08:11 | -18.07092 | 177.76209 | 7081 ft | 106 kts | 112° |
| 2026-05-06 08:11 | -18.07410 | 177.76906 | 7081 ft | 106 kts | 115° |
| 2026-05-06 08:11 | -18.07710 | 177.77583 | 7082 ft | 106 kts | 114° |
| 2026-05-06 08:12 | -18.08003 | 177.78281 | 7082 ft | 106 kts | 112° |
| 2026-05-06 08:12 | -18.08287 | 177.78989 | 7082 ft | 106 kts | 112° |
| 2026-05-06 08:12 | -18.08569 | 177.79694 | 7082 ft | 106 kts | 112° |
| 2026-05-06 08:12 | -18.08851 | 177.80400 | 7082 ft | 106 kts | 112° |
| 2026-05-06 08:13 | -18.09132 | 177.81107 | 7082 ft | 106 kts | 112° |
| 2026-05-06 08:13 | -18.09416 | 177.81819 | 7082 ft | 106 kts | 112° |
| 2026-05-06 08:13 | -18.09699 | 177.82530 | 7082 ft | 106 kts | 112° |
| 2026-05-06 08:13 | -18.09963 | 177.83191 | 7082 ft | 106 kts | 112° |
| 2026-05-06 08:14 | -18.10258 | 177.83931 | 7082 ft | 106 kts | 112° |
| 2026-05-06 08:14 | -18.10538 | 177.84636 | 7082 ft | 106 kts | 112° |
| 2026-05-06 08:14 | -18.10824 | 177.85353 | 7082 ft | 106 kts | 112° |
| 2026-05-06 08:14 | -18.11108 | 177.86067 | 7082 ft | 106 kts | 112° |
| 2026-05-06 08:15 | -18.11390 | 177.86777 | 7081 ft | 106 kts | 112° |
| 2026-05-06 08:15 | -18.11673 | 177.87489 | 7082 ft | 106 kts | 112° |
| 2026-05-06 08:15 | -18.11966 | 177.88200 | 7081 ft | 106 kts | 114° |
| 2026-05-06 08:15 | -18.12272 | 177.88905 | 7081 ft | 106 kts | 114° |
| 2026-05-06 08:16 | -18.12577 | 177.89604 | 7081 ft | 106 kts | 114° |
| 2026-05-06 08:16 | -18.12870 | 177.90308 | 7082 ft | 106 kts | 112° |
| 2026-05-06 08:16 | -18.13152 | 177.91016 | 7082 ft | 106 kts | 112° |
| 2026-05-06 08:16 | -18.13434 | 177.91728 | 7082 ft | 106 kts | 112° |
| 2026-05-06 08:17 | -18.13720 | 177.92448 | 7082 ft | 106 kts | 112° |
| 2026-05-06 08:17 | -18.14004 | 177.93164 | 7082 ft | 106 kts | 112° |
| 2026-05-06 08:17 | -18.14290 | 177.93877 | 7081 ft | 106 kts | 113° |
| 2026-05-06 08:17 | -18.14584 | 177.94585 | 7081 ft | 106 kts | 113° |
| 2026-05-06 08:18 | -18.14878 | 177.95293 | 7081 ft | 106 kts | 113° |
| 2026-05-06 08:18 | -18.15170 | 177.95993 | 7082 ft | 106 kts | 113° |
| 2026-05-06 08:18 | -18.15467 | 177.96707 | 7082 ft | 106 kts | 113° |
| 2026-05-06 08:18 | -18.15761 | 177.97414 | 7082 ft | 106 kts | 113° |
| 2026-05-06 08:19 | -18.16060 | 177.98135 | 7082 ft | 106 kts | 113° |
| 2026-05-06 08:19 | -18.16354 | 177.98840 | 7082 ft | 106 kts | 113° |
| 2026-05-06 08:19 | -18.16649 | 177.99551 | 7082 ft | 106 kts | 113° |
| 2026-05-06 08:19 | -18.16937 | 178.00262 | 7082 ft | 106 kts | 112° |
| 2026-05-06 08:20 | -18.17223 | 178.00986 | 7082 ft | 106 kts | 112° |
| 2026-05-06 08:20 | -18.17507 | 178.01701 | 7081 ft | 104 kts | 112° |
| 2026-05-06 08:20 | -18.17779 | 178.02391 | 7080 ft | 101 kts | 112° |
| 2026-05-06 08:20 | -18.18050 | 178.03061 | 7080 ft | 99 kts | 113° |
| 2026-05-06 08:21 | -18.18325 | 178.03726 | 7081 ft | 98 kts | 113° |
| 2026-05-06 08:21 | -18.18596 | 178.04381 | 7081 ft | 97 kts | 113° |
| 2026-05-06 08:21 | -18.18867 | 178.05029 | 7081 ft | 97 kts | 114° |
| 2026-05-06 08:21 | -18.19147 | 178.05678 | 7081 ft | 96 kts | 114° |
| 2026-05-06 08:22 | -18.19424 | 178.06317 | 7081 ft | 96 kts | 114° |
| 2026-05-06 08:22 | -18.19703 | 178.06961 | 7081 ft | 96 kts | 114° |
| 2026-05-06 08:22 | -18.19981 | 178.07602 | 7081 ft | 96 kts | 114° |
| 2026-05-06 08:22 | -18.20258 | 178.08241 | 7081 ft | 96 kts | 114° |
| 2026-05-06 08:23 | -18.20538 | 178.08890 | 7082 ft | 96 kts | 114° |
| 2026-05-06 08:23 | -18.20798 | 178.09537 | 7082 ft | 96 kts | 112° |
| 2026-05-06 08:23 | -18.21054 | 178.10185 | 7082 ft | 96 kts | 112° |
| 2026-05-06 08:23 | -18.21310 | 178.10837 | 7081 ft | 96 kts | 112° |
| 2026-05-06 08:24 | -18.21567 | 178.11493 | 7075 ft | 97 kts | 112° |
| 2026-05-06 08:24 | -18.21835 | 178.12172 | 6952 ft | 101 kts | 112° |
| 2026-05-06 08:24 | -18.22105 | 178.12860 | 6830 ft | 104 kts | 112° |
| 2026-05-06 08:24 | -18.22386 | 178.13573 | 6705 ft | 105 kts | 112° |
| 2026-05-06 08:25 | -18.22632 | 178.14300 | 6580 ft | 106 kts | 103° |
| 2026-05-06 08:25 | -18.22747 | 178.15054 | 6457 ft | 106 kts | 93° |
| 2026-05-06 08:25 | -18.22717 | 178.15831 | 6332 ft | 106 kts | 81° |
| 2026-05-06 08:25 | -18.22490 | 178.16565 | 6209 ft | 106 kts | 68° |
| 2026-05-06 08:26 | -18.22207 | 178.17287 | 6084 ft | 106 kts | 67° |
| 2026-05-06 08:26 | -18.21920 | 178.18008 | 5958 ft | 107 kts | 67° |
| 2026-05-06 08:26 | -18.21635 | 178.18726 | 5834 ft | 107 kts | 67° |
| 2026-05-06 08:26 | -18.21344 | 178.19455 | 5707 ft | 107 kts | 67° |
| 2026-05-06 08:27 | -18.21058 | 178.20174 | 5583 ft | 107 kts | 67° |
| 2026-05-06 08:27 | -18.20773 | 178.20889 | 5459 ft | 107 kts | 67° |
| 2026-05-06 08:27 | -18.20485 | 178.21611 | 5334 ft | 107 kts | 67° |
| 2026-05-06 08:27 | -18.20198 | 178.22331 | 5209 ft | 107 kts | 67° |
| 2026-05-06 08:28 | -18.19903 | 178.23061 | 5082 ft | 107 kts | 66° |
| 2026-05-06 08:28 | -18.19593 | 178.23773 | 4957 ft | 107 kts | 65° |
| 2026-05-06 08:28 | -18.19282 | 178.24481 | 4832 ft | 107 kts | 65° |
| 2026-05-06 08:28 | -18.18966 | 178.25201 | 4706 ft | 107 kts | 65° |
| 2026-05-06 08:29 | -18.18655 | 178.25909 | 4581 ft | 107 kts | 65° |
| 2026-05-06 08:29 | -18.18342 | 178.26622 | 4456 ft | 107 kts | 65° |
| 2026-05-06 08:29 | -18.18032 | 178.27328 | 4331 ft | 107 kts | 65° |
| 2026-05-06 08:29 | -18.17717 | 178.28044 | 4205 ft | 107 kts | 65° |
| 2026-05-06 08:30 | -18.17404 | 178.28752 | 4081 ft | 107 kts | 64° |
| 2026-05-06 08:30 | -18.17079 | 178.29460 | 3955 ft | 107 kts | 64° |
| 2026-05-06 08:30 | -18.16746 | 178.30165 | 3829 ft | 107 kts | 63° |
| 2026-05-06 08:30 | -18.16409 | 178.30865 | 3704 ft | 107 kts | 63° |
| 2026-05-06 08:31 | -18.16074 | 178.31561 | 3579 ft | 107 kts | 63° |
| 2026-05-06 08:31 | -18.15734 | 178.32266 | 3453 ft | 107 kts | 63° |
| 2026-05-06 08:31 | -18.15399 | 178.32960 | 3328 ft | 107 kts | 63° |
| 2026-05-06 08:31 | -18.15062 | 178.33659 | 3202 ft | 106 kts | 63° |
| 2026-05-06 08:32 | -18.14727 | 178.34355 | 3077 ft | 106 kts | 63° |
| 2026-05-06 08:32 | -18.14406 | 178.35019 | 3070 ft | 98 kts | 63° |
| 2026-05-06 08:32 | -18.14096 | 178.35651 | 3075 ft | 94 kts | 62° |
| 2026-05-06 08:32 | -18.13799 | 178.36240 | 3076 ft | 91 kts | 62° |
| 2026-05-06 08:33 | -18.13502 | 178.36829 | 3077 ft | 90 kts | 62° |
| 2026-05-06 08:33 | -18.13207 | 178.37410 | 3077 ft | 89 kts | 62° |
| 2026-05-06 08:33 | -18.12917 | 178.37985 | 3077 ft | 89 kts | 62° |
| 2026-05-06 08:33 | -18.12626 | 178.38559 | 3077 ft | 88 kts | 62° |
| 2026-05-06 08:34 | -18.12338 | 178.39128 | 3077 ft | 88 kts | 62° |
| 2026-05-06 08:34 | -18.11359 | 178.39804 | 3081 ft | 97 kts | 355° |
| 2026-05-06 08:34 | -18.10678 | 178.39682 | 3080 ft | 101 kts | 348° |
| 2026-05-06 08:35 | -18.09992 | 178.39529 | 3079 ft | 104 kts | 348° |
| 2026-05-06 08:35 | -18.09286 | 178.39369 | 3078 ft | 105 kts | 348° |
| 2026-05-06 08:35 | -18.08577 | 178.39209 | 3078 ft | 105 kts | 348° |
| 2026-05-06 08:35 | -18.07871 | 178.39049 | 3078 ft | 105 kts | 348° |
| 2026-05-06 08:36 | -18.07150 | 178.38886 | 3078 ft | 105 kts | 348° |
| 2026-05-06 08:36 | -18.06435 | 178.38724 | 3078 ft | 106 kts | 348° |
| 2026-05-06 08:36 | -18.05712 | 178.38559 | 3077 ft | 106 kts | 348° |
| 2026-05-06 08:36 | -18.04999 | 178.38397 | 3077 ft | 106 kts | 348° |
| 2026-05-06 08:37 | -18.04278 | 178.38232 | 3077 ft | 106 kts | 348° |
| 2026-05-06 08:37 | -18.03565 | 178.38078 | 3076 ft | 106 kts | 352° |
| 2026-05-06 08:37 | -18.02823 | 178.38109 | 3077 ft | 106 kts | 5° |
| 2026-05-06 08:37 | -18.02090 | 178.38191 | 3077 ft | 106 kts | 6° |
| 2026-05-06 08:38 | -18.01365 | 178.38277 | 3077 ft | 106 kts | 6° |
| 2026-05-06 08:38 | -18.00642 | 178.38362 | 3077 ft | 106 kts | 6° |
| 2026-05-06 08:38 | -17.99908 | 178.38448 | 3077 ft | 106 kts | 6° |
| 2026-05-06 08:38 | -17.99179 | 178.38538 | 3076 ft | 106 kts | 9° |
| 2026-05-06 08:39 | -17.98495 | 178.38844 | 3061 ft | 107 kts | 38° |
| 2026-05-06 08:39 | -17.98106 | 178.39484 | 3053 ft | 107 kts | 77° |
| 2026-05-06 08:39 | -17.98227 | 178.40236 | 3063 ft | 106 kts | 117° |
| 2026-05-06 08:39 | -17.98587 | 178.40872 | 3025 ft | 95 kts | 123° |
| 2026-05-06 08:40 | -17.98930 | 178.41402 | 2995 ft | 83 kts | 125° |
| 2026-05-06 08:40 | -17.99263 | 178.41896 | 2919 ft | 84 kts | 126° |
| 2026-05-06 08:40 | -17.99594 | 178.42413 | 2844 ft | 87 kts | 121° |
| 2026-05-06 08:40 | -17.99901 | 178.42984 | 2746 ft | 89 kts | 117° |
| 2026-05-06 08:41 | -18.00171 | 178.43535 | 2606 ft | 85 kts | 115° |
| 2026-05-06 08:41 | -18.00414 | 178.44112 | 2416 ft | 86 kts | 114° |
| 2026-05-06 08:41 | -18.00644 | 178.44690 | 2249 ft | 87 kts | 110° |
| 2026-05-06 08:41 | -18.00829 | 178.45309 | 2044 ft | 91 kts | 106° |
| 2026-05-06 08:42 | -18.01027 | 178.45932 | 1901 ft | 90 kts | 109° |
| 2026-05-06 08:42 | -18.01244 | 178.46552 | 1762 ft | 89 kts | 112° |
| 2026-05-06 08:42 | -18.01467 | 178.47160 | 1628 ft | 87 kts | 110° |
| 2026-05-06 08:42 | -18.01618 | 178.47603 | 1560 ft | 84 kts | 109° |
| 2026-05-06 08:43 | -18.01799 | 178.48184 | 1459 ft | 84 kts | 107° |
| 2026-05-06 08:43 | -18.01975 | 178.48769 | 1343 ft | 85 kts | 107° |
| 2026-05-06 08:43 | -18.02160 | 178.49359 | 1243 ft | 84 kts | 108° |
| 2026-05-06 08:43 | -18.02360 | 178.49950 | 1118 ft | 86 kts | 110° |
| 2026-05-06 08:44 | -18.02562 | 178.50548 | 992 ft | 83 kts | 109° |
| 2026-05-06 08:44 | -18.02747 | 178.51103 | 869 ft | 78 kts | 109° |
| 2026-05-06 08:44 | -18.02927 | 178.51627 | 764 ft | 74 kts | 110° |
| 2026-05-06 08:44 | -18.03098 | 178.52124 | 674 ft | 71 kts | 109° |
| 2026-05-06 08:45 | -18.03244 | 178.52599 | 571 ft | 68 kts | 106° |
| 2026-05-06 08:45 | -18.03394 | 178.53073 | 479 ft | 68 kts | 108° |
| 2026-05-06 08:45 | -18.03545 | 178.53537 | 388 ft | 66 kts | 109° |
| 2026-05-06 08:45 | -18.03700 | 178.53995 | 316 ft | 67 kts | 109° |
| 2026-05-06 08:46 | -18.03861 | 178.54486 | 333 ft | 72 kts | 108° |
| 2026-05-06 08:46 | -18.04000 | 178.54961 | 503 ft | 72 kts | 105° |
| 2026-05-06 08:46 | -18.04151 | 178.55492 | 635 ft | 78 kts | 107° |
| 2026-05-06 08:46 | -18.04343 | 178.56078 | 757 ft | 93 kts | 109° |
| 2026-05-06 08:47 | -18.04567 | 178.56747 | 914 ft | 101 kts | 109° |
| 2026-05-06 08:47 | -18.04806 | 178.57460 | 1068 ft | 105 kts | 109° |
| 2026-05-06 08:47 | -18.05053 | 178.58195 | 1219 ft | 108 kts | 109° |
| 2026-05-06 08:47 | -18.05306 | 178.58949 | 1372 ft | 109 kts | 109° |
| 2026-05-06 08:48 | -18.05557 | 178.59695 | 1521 ft | 109 kts | 109° |
| 2026-05-06 08:48 | -18.05809 | 178.60448 | 1671 ft | 109 kts | 109° |
| 2026-05-06 08:48 | -18.06064 | 178.61204 | 1822 ft | 109 kts | 109° |
| 2026-05-06 08:48 | -18.06316 | 178.61957 | 1972 ft | 109 kts | 109° |
| 2026-05-06 08:49 | -18.06568 | 178.62707 | 2121 ft | 109 kts | 109° |
| 2026-05-06 08:49 | -18.06818 | 178.63454 | 2270 ft | 108 kts | 109° |
| 2026-05-06 08:49 | -18.07069 | 178.64201 | 2420 ft | 108 kts | 109° |
| 2026-05-06 08:49 | -18.07318 | 178.64946 | 2570 ft | 108 kts | 109° |
| 2026-05-06 08:50 | -18.07568 | 178.65689 | 2720 ft | 107 kts | 109° |
| 2026-05-06 08:50 | -18.07814 | 178.66425 | 2868 ft | 107 kts | 109° |
| 2026-05-06 08:50 | -18.08061 | 178.67165 | 3018 ft | 107 kts | 109° |
| 2026-05-06 08:50 | -18.08310 | 178.67906 | 3169 ft | 107 kts | 109° |
| 2026-05-06 08:51 | -18.08554 | 178.68639 | 3318 ft | 106 kts | 109° |
| 2026-05-06 08:51 | -18.08799 | 178.69369 | 3467 ft | 106 kts | 109° |
| 2026-05-06 08:51 | -18.09042 | 178.70097 | 3616 ft | 106 kts | 109° |
| 2026-05-06 08:51 | -18.09286 | 178.70827 | 3766 ft | 105 kts | 109° |
| 2026-05-06 08:52 | -18.09530 | 178.71561 | 3905 ft | 106 kts | 109° |
| 2026-05-06 08:52 | -18.09774 | 178.72290 | 4030 ft | 107 kts | 109° |
| 2026-05-06 08:52 | -18.10022 | 178.73033 | 4141 ft | 109 kts | 109° |
| 2026-05-06 08:52 | -18.10420 | 178.73756 | 4112 ft | 119 kts | 139° |
| 2026-05-06 08:53 | -18.11208 | 178.74039 | 4065 ft | 124 kts | 182° |
| 2026-05-06 08:53 | -18.12010 | 178.73755 | 4067 ft | 123 kts | 215° |
| 2026-05-06 08:53 | -18.12451 | 178.73006 | 4068 ft | 123 kts | 259° |
| 2026-05-06 08:53 | -18.12292 | 178.72148 | 4069 ft | 123 kts | 301° |
| 2026-05-06 08:54 | -18.11748 | 178.71445 | 4074 ft | 123 kts | 312° |
| 2026-05-06 08:54 | -18.11187 | 178.70769 | 4075 ft | 123 kts | 308° |
| 2026-05-06 08:54 | -18.10698 | 178.70018 | 4075 ft | 123 kts | 303° |
| 2026-05-06 08:54 | -18.10230 | 178.69263 | 4080 ft | 123 kts | 303° |
| 2026-05-06 08:55 | -18.09772 | 178.68521 | 4073 ft | 114 kts | 303° |
| 2026-05-06 08:55 | -18.09373 | 178.67876 | 4069 ft | 97 kts | 303° |
| 2026-05-06 08:55 | -18.09031 | 178.67320 | 4070 ft | 87 kts | 302° |
| 2026-05-06 08:55 | -18.08709 | 178.66817 | 4071 ft | 79 kts | 303° |
| 2026-05-06 08:56 | -18.08408 | 178.66347 | 4075 ft | 80 kts | 303° |
| 2026-05-06 08:56 | -18.08065 | 178.65807 | 4186 ft | 93 kts | 303° |
| 2026-05-06 08:56 | -18.07692 | 178.65221 | 4316 ft | 99 kts | 303° |
| 2026-05-06 08:56 | -18.07300 | 178.64604 | 4445 ft | 103 kts | 303° |
| 2026-05-06 08:57 | -18.06895 | 178.63968 | 4572 ft | 105 kts | 303° |
| 2026-05-06 08:57 | -18.06518 | 178.63315 | 4697 ft | 106 kts | 300° |
| 2026-05-06 08:57 | -18.06155 | 178.62628 | 4824 ft | 106 kts | 297° |
| 2026-05-06 08:57 | -18.05806 | 178.61937 | 4949 ft | 106 kts | 297° |
| 2026-05-06 08:58 | -18.05486 | 178.61237 | 5047 ft | 109 kts | 292° |
| 2026-05-06 08:58 | -18.05213 | 178.60484 | 5168 ft | 108 kts | 288° |
| 2026-05-06 08:58 | -18.04987 | 178.59727 | 5287 ft | 108 kts | 286° |
| 2026-05-06 08:58 | -18.04846 | 178.59224 | 5360 ft | 108 kts | 285° |